Time;durP1;ratioP1;P1;durP2;ratioP2;P2;SDS_P1;SDS_P2;PMS_P1;PMS_P2;Temp;Humidity;BMP_temperature;BMP_pressure;BME280_temperature;BME280_humidity;BME280_pressure;Samples;Min_cycle;Max_cycle;Signal;HPM_P1;HPM_P2
2021/06/22 00:00:24;;;;;;;19.25;17.35;;;;;;;23.84;56.93;99998.68;1619279;87;21128;-74
2021/06/22 00:02:51;;;;;;;23.05;20.17;;;;;;;23.80;56.96;100002.05;1629523;86;21069;-74
2021/06/22 00:05:18;;;;;;;22.50;18.87;;;;;;;23.74;57.05;100002.06;1626697;86;21121;-74
2021/06/22 00:07:50;;;;;;;20.60;18.67;;;;;;;23.69;57.09;100004.23;1627225;86;21049;-74
2021/06/22 00:10:20;;;;;;;21.93;19.50;;;;;;;23.65;57.22;100001.95;1627309;86;21106;-74
2021/06/22 00:12:47;;;;;;;24.92;19.60;;;;;;;23.62;57.28;100002.20;1626580;86;21116;-74
2021/06/22 00:15:18;;;;;;;23.05;18.73;;;;;;;23.57;57.36;100001.25;1627396;86;21125;-74
2021/06/22 00:17:45;;;;;;;22.98;20.08;;;;;;;23.55;57.48;100011.09;1626977;86;21085;-74
2021/06/22 00:20:13;;;;;;;;;;;;;;;23.53;57.61;100016.97;1629522;86;21097;-74
2021/06/22 00:22:41;;;;;;;22.20;18.77;;;;;;;23.51;58.24;100012.26;1617205;87;20212;-74
2021/06/22 00:25:11;;;;;;;20.62;18.05;;;;;;;23.47;57.75;100013.46;1627542;86;21152;-74
2021/06/22 00:27:37;;;;;;;22.07;19.73;;;;;;;23.41;57.80;100014.78;1627202;86;21061;-74
2021/06/22 00:30:07;;;;;;;21.82;19.20;;;;;;;23.38;57.88;100008.94;1627381;86;28551;-74
2021/06/22 00:32:34;;;;;;;19.73;17.82;;;;;;;23.37;57.92;100013.86;1610092;87;20966;-74
2021/06/22 00:35:01;;;;;;;21.25;18.65;;;;;;;23.33;57.97;100007.14;1628506;86;20919;-74
2021/06/22 00:37:27;;;;;;;18.67;16.93;;;;;;;23.29;58.02;100004.39;1628415;86;20926;-74
2021/06/22 00:39:53;;;;;;;18.48;16.62;;;;;;;23.26;58.07;100005.94;1628165;86;20967;-74
2021/06/22 00:42:20;;;;;;;18.32;15.98;;;;;;;23.24;58.17;100007.86;1628340;86;20926;-74
2021/06/22 00:44:59;;;;;;;16.52;15.20;;;;;;;23.19;58.15;99999.47;1628512;86;20963;-74
2021/06/22 00:47:27;;;;;;;18.30;16.40;;;;;;;23.16;58.20;99997.06;1628047;86;20962;-74
2021/06/22 00:49:54;;;;;;;18.87;16.82;;;;;;;23.08;58.22;99993.70;1628446;86;20938;-74
2021/06/22 00:52:29;;;;;;;14.33;12.90;;;;;;;23.03;58.33;99988.79;1628311;86;20966;-74
2021/06/22 00:54:56;;;;;;;16.93;14.85;;;;;;;23.01;58.38;99992.50;1628099;86;20936;-74
2021/06/22 00:57:24;;;;;;;22.05;17.50;;;;;;;22.99;58.46;99998.38;1627954;86;20891;-74
2021/06/22 00:59:51;;;;;;;17.70;16.05;;;;;;;22.95;58.46;99992.98;1627803;86;20970;-74
2021/06/22 01:02:17;;;;;;;18.07;15.65;;;;;;;22.92;58.53;99988.78;1626546;86;20971;-74
2021/06/22 01:04:44;;;;;;;17.10;15.70;;;;;;;22.89;58.62;99986.37;1628448;86;21310;-74
2021/06/22 01:07:13;;;;;;;16.80;15.32;;;;;;;22.88;58.61;99989.12;1628303;86;20891;-74
2021/06/22 01:09:40;;;;;;;18.17;16.27;;;;;;;22.82;58.65;99987.84;1628053;86;20927;-74
2021/06/22 01:12:08;;;;;;;19.12;17.50;;;;;;;22.76;58.74;99996.18;1627796;86;20990;-74
2021/06/22 01:14:38;;;;;;;17.95;16.35;;;;;;;22.74;58.81;99991.50;1627239;86;20942;-74
2021/06/22 01:17:04;;;;;;;21.97;19.77;;;;;;;22.71;58.92;99995.69;1619206;86;21530;-74
2021/06/22 01:19:32;;;;;;;21.42;19.55;;;;;;;22.69;58.93;99994.97;1628485;86;20963;-74
2021/06/22 01:21:58;;;;;;;22.52;20.10;;;;;;;22.62;58.98;99992.44;1623599;86;21303;-74
2021/06/22 01:24:25;;;;;;;21.60;19.45;;;;;;;22.59;59.11;100000.57;1627869;86;20987;-74
2021/06/22 01:27:00;;;;;;;25.17;22.62;;;;;;;22.56;59.13;99997.69;1626842;86;21118;-74
2021/06/22 01:29:29;;;;;;;22.73;20.10;;;;;;;22.49;59.28;99997.78;1628390;86;20934;-74
2021/06/22 01:31:57;;;;;;;20.25;18.45;;;;;;;22.48;59.39;100007.13;1625434;86;20938;-74
2021/06/22 01:34:26;;;;;;;23.75;21.45;;;;;;;22.47;59.38;100004.97;1611245;87;20927;-74
2021/06/22 01:36:55;;;;;;;23.45;21.23;;;;;;;22.41;59.48;100010.22;1626586;86;21116;-74
2021/06/22 01:39:21;;;;;;;24.02;21.60;;;;;;;22.42;59.55;100012.38;1627225;86;21712;-74
2021/06/22 01:41:48;;;;;;;21.73;19.67;;;;;;;22.41;59.62;100014.64;1627198;86;21053;-74
2021/06/22 01:44:15;;;;;;;19.70;18.10;;;;;;;22.40;59.65;100023.03;1626571;86;21069;-74
2021/06/22 01:46:41;;;;;;;23.47;21.05;;;;;;;22.40;59.61;100016.91;1626693;86;27005;-74
2021/06/22 01:49:07;;;;;;;20.72;18.85;;;;;;;22.37;59.63;100017.14;1626618;86;21066;-74
2021/06/22 01:51:34;;;;;;;19.17;17.40;;;;;;;22.32;59.64;100014.88;1627216;86;21117;-74
2021/06/22 01:54:01;;;;;;;20.20;18.07;;;;;;;22.27;59.66;100011.75;1626841;86;26137;-74
2021/06/22 01:56:31;;;;;;;17.70;16.23;;;;;;;22.20;59.68;100011.84;1627074;86;21118;-74
2021/06/22 01:59:01;;;;;;;19.00;17.23;;;;;;;22.16;59.83;100012.17;1627209;86;21041;-74
2021/06/22 02:01:28;;;;;;;18.02;16.62;;;;;;;22.11;59.85;100012.03;1627379;87;21119;-74
2021/06/22 02:03:55;;;;;;;16.87;15.38;;;;;;;22.06;59.92;100006.73;1627177;86;21685;-74
2021/06/22 02:06:21;;;;;;;16.05;14.70;;;;;;;22.03;60.02;100010.91;1627322;86;21074;-74
2021/06/22 02:08:47;;;;;;;13.38;12.47;;;;;;;21.99;60.05;100005.47;1627405;86;21039;-74
2021/06/22 02:11:14;;;;;;;17.70;16.30;;;;;;;21.98;60.16;100009.06;1626996;86;21050;-74
2021/06/22 02:13:40;;;;;;;22.15;20.05;;;;;;;21.96;60.30;100007.02;1627222;86;21647;-74
2021/06/22 02:16:07;;;;;;;21.95;19.92;;;;;;;21.95;60.32;100009.28;1627271;86;21532;-74
2021/06/22 02:18:33;;;;;;;22.20;20.00;;;;;;;21.94;60.38;100015.50;1627004;86;21058;-74
2021/06/22 02:21:00;;;;;;;22.07;20.05;;;;;;;21.91;60.36;100007.83;1627129;86;21121;-74
2021/06/22 02:23:26;;;;;;;19.42;17.82;;;;;;;21.84;60.52;100011.84;1626514;86;21060;-74
2021/06/22 02:25:53;;;;;;;18.82;17.15;;;;;;;21.82;60.56;100018.58;1627010;86;21002;-74
2021/06/22 02:28:22;;;;;;;17.20;15.80;;;;;;;21.71;60.64;100025.08;1627155;86;20973;-74
2021/06/22 02:30:52;;;;;;;21.00;19.12;;;;;;;21.72;60.81;100040.76;1628469;86;20974;-74
2021/06/22 02:33:20;;;;;;;20.72;18.90;;;;;;;21.76;60.85;100041.38;1628216;86;20955;-74
2021/06/22 02:35:46;;;;;;;;;;;;;;;21.77;60.90;100041.27;1630162;86;20926;-74
2021/06/22 02:38:13;;;;;;;21.17;19.32;;;;;;;21.79;61.40;100047.27;1634687;87;20114;-74
2021/06/22 02:40:40;;;;;;;22.77;20.37;;;;;;;21.81;60.95;100056.38;1637532;87;20893;-74
2021/06/22 02:43:07;;;;;;;22.45;20.32;;;;;;;21.81;60.98;100064.27;1648973;86;21517;-74
2021/06/22 02:45:34;;;;;;;20.30;18.27;;;;;;;21.84;61.02;100065.33;1648772;86;28082;-74
2021/06/22 02:48:01;;;;;;;23.00;21.00;;;;;;;21.86;61.05;100073.12;1642166;86;20941;-74
2021/06/22 02:50:27;;;;;;;19.98;18.02;;;;;;;21.87;61.10;100079.59;1626206;88;20955;-74
2021/06/22 02:52:54;;;;;;;22.40;20.00;;;;;;;;;;1641154;87;20958;-74
2021/06/22 02:55:20;;;;;;;21.00;19.20;;;;;;;21.88;61.09;100087.02;1639309;87;20948;-74
2021/06/22 02:57:53;;;;;;;22.85;20.50;;;;;;;21.87;61.26;100082.70;1631840;87;20964;-74
2021/06/22 03:00:24;;;;;;;21.48;19.23;;;;;;;21.92;61.32;100092.42;1625049;87;20946;-73
2021/06/22 03:02:50;;;;;;;20.95;19.02;;;;;;;21.95;61.35;100105.37;1632248;86;20912;-74
2021/06/22 03:05:19;;;;;;;22.22;20.05;;;;;;;22.02;61.39;100109.28;1629858;87;21334;-74
2021/06/22 03:07:46;;;;;;;24.67;22.17;;;;;;;22.07;61.42;100111.95;1629779;87;20922;-74
2021/06/22 03:10:16;;;;;;;20.90;18.98;;;;;;;22.12;61.49;100113.78;1630170;87;26631;-74
2021/06/22 03:12:42;;;;;;;22.93;20.92;;;;;;;22.16;61.49;100115.72;1629489;87;20971;-74
2021/06/22 03:15:12;;;;;;;23.73;20.15;;;;;;;22.19;61.53;100115.50;1630273;87;20938;-74
2021/06/22 03:17:38;;;;;;;23.12;21.00;;;;;;;22.24;61.65;100113.86;1622097;88;20951;-74
2021/06/22 03:20:08;;;;;;;24.12;21.87;;;;;;;22.30;61.60;100115.57;1629432;87;21070;-74
2021/06/22 03:22:35;;;;;;;21.75;19.40;;;;;;;22.34;61.54;100117.03;1628807;87;21133;-74
2021/06/22 03:25:01;;;;;;;23.38;20.95;;;;;;;22.28;61.64;100119.27;1629026;87;20954;-74
2021/06/22 03:27:28;;;;;;;26.33;23.52;;;;;;;22.28;61.76;100120.11;1628800;87;21491;-74
2021/06/22 03:29:54;;;;;;;27.62;25.05;;;;;;;22.30;61.82;100118.20;1624691;88;21073;-74
2021/06/22 03:32:25;;;;;;;27.42;24.87;;;;;;;22.34;61.86;100116.19;1630514;87;21046;-74
2021/06/22 03:34:52;;;;;;;25.40;22.85;;;;;;;22.36;61.89;100119.05;1615839;88;21785;-74
2021/06/22 03:37:19;;;;;;;25.55;23.10;;;;;;;22.37;61.90;100115.45;1628877;87;20997;-74
2021/06/22 03:39:47;;;;;;;27.42;24.82;;;;;;;22.38;61.93;100110.55;1619651;88;21062;-74
2021/06/22 03:42:14;;;;;;;26.37;23.70;;;;;;;22.44;62.07;100109.27;1628850;87;20979;-74
2021/06/22 03:44:40;;;;;;;28.32;25.43;;;;;;;22.52;62.13;100108.23;1628795;87;21133;-74
2021/06/22 03:47:07;;;;;;;28.20;24.63;;;;;;;22.61;62.13;100109.34;1629164;87;21109;-74
2021/06/22 03:49:33;;;;;;;26.90;24.10;;;;;;;22.67;62.04;100108.89;1629124;87;20985;-74
2021/06/22 03:52:03;;;;;;;29.55;26.85;;;;;;;22.68;62.14;100106.14;1628396;87;21055;-74
2021/06/22 03:54:30;;;;;;;30.15;26.82;;;;;;;22.72;62.17;100113.34;1629322;87;21473;-74
2021/06/22 03:56:56;;;;;;;31.55;26.42;;;;;;;22.78;62.26;100117.72;1628601;87;21072;-74
2021/06/22 03:59:22;;;;;;;30.00;27.25;;;;;;;22.84;62.27;100121.70;1628785;86;21033;-74
2021/06/22 04:01:49;;;;;;;30.95;27.85;;;;;;;22.85;62.31;100119.90;1621764;86;22217;-74
2021/06/22 04:04:15;;;;;;;30.97;28.02;;;;;;;22.94;62.43;100121.34;1626216;87;21063;-74
2021/06/22 04:06:42;;;;;;;32.30;28.87;;;;;;;23.06;62.41;100126.17;1626483;86;21097;-74
2021/06/22 04:09:08;;;;;;;32.33;29.00;;;;;;;23.16;62.54;100121.88;1627137;86;22245;-74
2021/06/22 04:11:35;;;;;;;32.17;29.10;;;;;;;23.32;62.58;100126.83;1619561;86;27437;-74
2021/06/22 04:14:01;;;;;;;28.52;25.70;;;;;;;23.43;62.52;100134.25;1629632;86;20893;-74
2021/06/22 04:16:27;;;;;;;30.05;27.02;;;;;;;23.56;62.60;100128.90;1629722;86;21740;-74
2021/06/22 04:18:54;;;;;;;30.17;26.12;;;;;;;23.66;62.58;100130.34;1628998;87;21414;-76
2021/06/22 04:21:20;;;;;;;30.25;27.10;;;;;;;23.77;62.66;100127.70;1627966;86;21420;-76
2021/06/22 04:23:47;;;;;;;30.32;26.55;;;;;;;23.88;62.67;100126.86;1619322;86;21476;-77
2021/06/22 04:26:13;;;;;;;26.75;24.12;;;;;;;23.98;62.64;100125.98;1628939;86;21569;-77
2021/06/22 04:28:39;;;;;;;27.07;24.43;;;;;;;24.05;62.65;100123.22;1642401;87;21340;-77
2021/06/22 04:31:05;;;;;;;27.32;24.72;;;;;;;24.14;62.66;100123.44;1644565;87;21458;-77
2021/06/22 04:33:32;;;;;;;27.52;24.57;;;;;;;24.25;62.70;100122.97;1621448;87;21474;-77
2021/06/22 04:35:58;;;;;;;24.57;22.05;;;;;;;24.36;62.69;100122.95;1616935;87;21471;-77
2021/06/22 04:38:25;;;;;;;22.77;20.88;;;;;;;24.45;62.68;100122.66;1631725;87;20906;-77
2021/06/22 04:40:51;;;;;;;22.42;20.08;;;;;;;24.53;62.62;100122.03;1631315;87;21564;-76
2021/06/22 04:43:18;;;;;;;22.77;20.43;;;;;;;24.50;62.46;100120.47;1630463;86;20953;-77
2021/06/22 04:45:44;;;;;;;26.85;19.87;;;;;;;24.57;62.70;100124.30;1631562;86;22164;-78
2021/06/22 04:48:10;;;;;;;20.60;18.40;;;;;;;24.70;62.65;100128.09;1628267;87;21476;-76
2021/06/22 04:50:36;;;;;;;18.95;17.05;;;;;;;24.78;62.56;100124.81;1629856;86;21535;-76
2021/06/22 04:53:03;;;;;;;19.65;17.57;;;;;;;24.89;62.54;100128.73;1628084;86;21164;-76
2021/06/22 04:55:29;;;;;;;18.37;16.62;;;;;;;24.97;62.37;100131.58;1628808;86;21082;-76
2021/06/22 04:58:00;;;;;;;18.70;17.07;;;;;;;25.03;62.41;100130.59;1642161;85;22194;-76
2021/06/22 05:00:28;;;;;;;17.42;15.35;;;;;;;25.20;62.53;100130.48;1621068;86;21569;-77
2021/06/22 05:02:55;;;;;;;17.23;15.43;;;;;;;25.34;62.33;100129.32;1630653;86;22162;-76
2021/06/22 05:05:22;;;;;;;17.50;15.75;;;;;;;25.50;62.35;100130.98;1623847;86;21607;-76
2021/06/22 05:07:48;;;;;;;19.15;15.50;;;;;;;25.70;62.35;100130.14;1614646;86;21572;-76
2021/06/22 05:10:14;;;;;;;18.57;15.20;;;;;;;26.01;62.20;100132.24;1630529;87;21606;-76
2021/06/22 05:12:43;;;;;;;17.57;15.65;;;;;;;26.28;62.06;100132.94;1631068;87;21533;-76
2021/06/22 05:15:10;;;;;;;16.50;15.00;;;;;;;26.50;61.87;100137.69;1631739;87;21379;-77
2021/06/22 05:17:38;;;;;;;15.15;13.62;;;;;;;26.79;61.92;100136.34;1630652;86;21444;-77
2021/06/22 05:20:07;;;;;;;16.60;13.80;;;;;;;27.19;61.99;100140.16;1641832;86;21461;-77
2021/06/22 05:22:33;;;;;;;20.50;15.65;;;;;;;27.65;61.68;100139.34;1633492;86;20901;-77
2021/06/22 05:25:00;;;;;;;15.72;14.07;;;;;;;28.05;61.56;100123.07;1632428;86;21607;-78
2021/06/22 05:27:26;;;;;;;;;;;;;;;28.55;61.30;100141.23;1639427;86;21120;-78
2021/06/22 05:29:52;;;;;;;15.63;13.85;;;;;;;28.80;60.42;100143.59;1632632;87;20537;-78
2021/06/22 05:32:19;;;;;;;20.08;14.83;;;;;;;28.90;60.77;100149.70;1633527;87;21489;-78
2021/06/22 05:34:45;;;;;;;17.80;14.00;;;;;;;28.87;60.48;100142.86;1650458;85;21069;-78
2021/06/22 05:37:12;;;;;;;19.45;15.00;;;;;;;28.84;60.50;100142.33;1620460;87;21061;-78
2021/06/22 05:39:38;;;;;;;17.40;14.38;;;;;;;28.82;60.31;100142.48;1626622;87;21124;-78
2021/06/22 05:42:05;;;;;;;15.90;14.20;;;;;;;28.77;60.29;100146.06;1636297;86;20995;-78
2021/06/22 05:44:31;;;;;;;19.05;14.33;;;;;;;28.84;60.12;100151.65;1647852;85;21080;-77
2021/06/22 05:46:57;;;;;;;21.65;15.60;;;;;;;28.88;60.01;100157.01;1649973;86;21541;-78
2021/06/22 05:49:24;;;;;;;22.40;15.18;;;;;;;29.06;60.06;100153.84;1648546;85;21533;-78
2021/06/22 05:51:52;;;;;;;16.07;14.47;;;;;;;29.48;59.96;100153.97;1628847;86;21606;-78
2021/06/22 05:54:18;;;;;;;22.52;14.28;;;;;;;29.76;59.39;100153.27;1631562;86;21348;-78
2021/06/22 05:56:44;;;;;;;21.73;14.18;;;;;;;29.80;59.26;100155.11;1630663;87;21153;-77
2021/06/22 05:59:11;;;;;;;17.77;13.45;;;;;;;29.82;59.09;100151.80;1634680;86;21063;-77
2021/06/22 06:01:38;;;;;;;16.32;14.53;;;;;;;29.78;58.77;100149.94;1644922;85;20999;-77
2021/06/22 06:04:05;;;;;;;16.02;13.90;;;;;;;29.68;58.70;100149.72;1633870;86;21502;-78
2021/06/22 06:06:31;;;;;;;24.00;14.47;;;;;;;29.67;58.68;100151.55;1641641;86;21036;-78
2021/06/22 06:08:57;;;;;;;21.23;14.60;;;;;;;29.78;58.51;100159.27;1637415;86;22223;-78
2021/06/22 06:11:24;;;;;;;20.45;14.28;;;;;;;29.80;58.24;100161.78;1648270;86;21069;-78
2021/06/22 06:13:51;;;;;;;20.60;14.30;;;;;;;29.74;58.12;100155.75;1648876;86;20969;-78
2021/06/22 06:16:17;;;;;;;16.50;13.60;;;;;;;29.77;58.03;100158.93;1643798;86;21566;-78
2021/06/22 06:18:43;;;;;;;18.17;14.95;;;;;;;29.80;57.82;100157.78;1642301;86;21657;-78
2021/06/22 06:21:09;;;;;;;16.45;14.50;;;;;;;29.90;57.65;100158.00;1644223;86;21048;-78
2021/06/22 06:23:40;;;;;;;15.00;13.50;;;;;;;29.95;57.52;100154.85;1637854;86;20980;-78
2021/06/22 06:26:04;;;;;;;18.92;13.20;;;;;;;30.09;57.41;100157.44;1621735;86;21013;-78
2021/06/22 06:28:40;;;;;;;20.32;13.03;;;;;;;30.30;57.22;100158.65;1647719;85;21091;-78
2021/06/22 06:31:01;;;;;;;15.25;11.85;;;;;;;30.59;57.20;100158.25;1638121;85;21436;-78
2021/06/22 06:33:28;;;;;;;17.85;12.23;;;;;;;31.13;57.04;100160.45;1644142;85;20910;-78
2021/06/22 06:35:54;;;;;;;14.38;11.53;;;;;;;31.62;56.80;100161.67;1627556;86;20978;-78
2021/06/22 06:38:21;;;;;;;17.32;11.38;;;;;;;32.07;56.49;100163.19;1650665;86;21875;-78
2021/06/22 06:40:48;;;;;;;16.40;10.72;;;;;;;32.40;56.04;100165.20;1630991;86;20890;-78
2021/06/22 06:43:14;;;;;;;12.00;10.55;;;;;;;32.58;55.75;100159.56;1646863;86;21420;-77
2021/06/22 06:45:41;;;;;;;12.03;10.35;;;;;;;32.57;55.35;100165.93;1648060;86;20881;-78
2021/06/22 06:48:08;;;;;;;19.90;10.88;;;;;;;32.47;55.24;100166.66;1642534;85;20955;-78
2021/06/22 06:50:34;;;;;;;23.12;10.50;;;;;;;32.56;55.19;100169.11;1642754;86;20955;-78
2021/06/22 06:53:01;;;;;;;17.98;9.45;;;;;;;32.80;55.00;100177.98;1642633;85;20914;-78
2021/06/22 06:55:27;;;;;;;13.18;9.45;;;;;;;33.02;54.61;100172.30;1644761;86;20921;-78
2021/06/22 06:58:03;;;;;;;18.45;9.38;;;;;;;33.19;54.36;100176.00;1648889;86;20917;-78
2021/06/22 07:00:35;;;;;;;10.00;9.00;;;;;;;33.47;54.19;100180.25;1632227;86;21388;-78
2021/06/22 07:03:03;;;;;;;11.93;9.08;;;;;;;33.77;53.74;100178.93;1636766;86;20961;-78
2021/06/22 07:05:30;;;;;;;11.00;8.85;;;;;;;33.75;53.43;100184.99;1645765;86;20895;-78
2021/06/22 07:07:57;;;;;;;12.50;9.43;;;;;;;33.83;53.31;100176.34;1646499;86;21382;-78
2021/06/22 07:10:25;;;;;;;9.70;8.90;;;;;;;33.95;52.89;100178.55;1643608;86;20962;-78
2021/06/22 07:12:53;;;;;;;9.40;8.60;;;;;;;34.02;52.75;100175.45;1651632;86;21739;-78
2021/06/22 07:15:21;;;;;;;9.30;8.40;;;;;;;34.16;52.50;100175.94;1627378;87;20943;-78
2021/06/22 07:17:48;;;;;;;9.95;8.25;;;;;;;34.24;52.26;100178.52;1625487;87;20885;-78
2021/06/22 07:20:15;;;;;;;13.28;8.43;;;;;;;34.46;51.99;100173.51;1627822;87;20921;-79
2021/06/22 07:22:42;;;;;;;10.03;8.23;;;;;;;34.59;51.51;100182.73;1629459;86;21428;-78
2021/06/22 07:25:09;;;;;;;11.30;9.00;;;;;;;34.52;51.24;100184.00;1627853;88;20958;-78
2021/06/22 07:27:36;;;;;;;10.08;9.08;;;;;;;34.61;51.22;100182.86;1627783;86;20924;-76
2021/06/22 07:30:04;;;;;;;9.40;8.53;;;;;;;34.67;50.39;100167.33;1626657;88;20906;-76
2021/06/22 07:32:30;;;;;;;11.10;8.38;;;;;;;34.67;50.39;100167.33;1639133;85;20890;-76
2021/06/22 07:34:57;;;;;;;9.68;8.68;;;;;;;34.97;50.42;100192.72;1620774;88;21010;-76
2021/06/22 07:37:23;;;;;;;8.93;7.75;;;;;;;35.10;50.28;100188.80;1627545;87;26410;-75
2021/06/22 07:39:49;;;;;;;10.28;7.95;;;;;;;35.25;49.96;100193.59;1627823;86;21542;-75
2021/06/22 07:42:15;;;;;;;;;;;;;;;35.38;49.69;100198.23;1628941;87;21100;-74
2021/06/22 07:44:42;;;;;;;8.93;7.15;;;;;;;35.43;48.67;100203.86;1625769;88;20260;-74
2021/06/22 07:47:09;;;;;;;12.33;8.00;;;;;;;35.54;49.06;100207.87;1628023;88;21430;-76
2021/06/22 07:49:35;;;;;;;8.63;7.33;;;;;;;35.50;48.63;100200.70;1652994;85;21488;-75
2021/06/22 07:52:02;;;;;;;9.58;8.10;;;;;;;35.41;48.31;100213.47;1649845;85;21126;-76
2021/06/22 07:54:29;;;;;;;12.70;8.08;;;;;;;35.05;48.01;100205.52;1649402;86;20899;-76
2021/06/22 07:56:55;;;;;;;15.58;8.35;;;;;;;34.82;47.81;100215.14;1653531;85;20978;-76
2021/06/22 07:59:21;;;;;;;13.78;8.20;;;;;;;34.80;47.72;100225.76;1653128;85;21544;-76
2021/06/22 08:01:48;;;;;;;9.20;7.58;;;;;;;34.81;47.42;100224.73;1655146;85;306666;-76
2021/06/22 08:04:14;;;;;;;14.83;7.47;;;;;;;35.06;47.27;100224.64;1646926;85;20935;-76
2021/06/22 08:06:40;;;;;;;17.37;8.35;;;;;;;35.28;47.04;100229.49;1633275;86;21377;-76
2021/06/22 08:09:06;;;;;;;;;;;;;;;35.40;46.54;100219.87;1653538;85;20941;-76
2021/06/22 08:11:32;;;;;;;;;;;;;;;35.20;45.65;100233.66;1620284;86;20098;-76
2021/06/22 08:13:59;;;;;;;9.28;7.00;;;;;;;34.88;45.65;100234.17;1644949;85;20168;-76
2021/06/22 08:16:25;;;;;;;8.08;7.28;;;;;;;34.46;45.75;100242.49;1635541;86;20902;-76
2021/06/22 08:18:51;;;;;;;13.45;7.92;;;;;;;34.18;45.90;100251.23;1645641;86;21008;-76
2021/06/22 08:21:18;;;;;;;12.78;7.80;;;;;;;34.09;45.70;100258.22;1647977;86;21437;-76
2021/06/22 08:23:45;;;;;;;10.55;7.83;;;;;;;33.85;45.40;100264.17;1648789;86;20887;-76
2021/06/22 08:26:11;;;;;;;15.32;7.03;;;;;;;33.67;45.48;100269.05;1641005;86;20956;-76
2021/06/22 08:28:38;;;;;;;11.03;8.53;;;;;;;33.49;45.38;100269.38;1645100;86;20940;-76
2021/06/22 08:31:04;;;;;;;9.53;7.78;;;;;;;33.44;45.14;100276.30;1648530;85;20997;-76
2021/06/22 08:33:30;;;;;;;16.20;8.38;;;;;;;33.13;44.98;100281.22;1627984;87;20922;-76
2021/06/22 08:35:57;;;;;;;9.90;8.93;;;;;;;33.03;44.98;100287.83;1639820;86;20976;-76
2021/06/22 08:38:23;;;;;;;10.20;8.15;;;;;;;32.98;44.84;100291.54;1649883;85;20922;-76
2021/06/22 08:40:49;;;;;;;12.28;8.10;;;;;;;32.89;44.83;100288.08;1625505;87;21266;-76
2021/06/22 08:43:18;;;;;;;8.80;7.75;;;;;;;32.92;44.76;100284.21;1638366;87;20918;-76
2021/06/22 08:45:46;;;;;;;9.10;8.08;;;;;;;33.03;44.71;100283.30;1632271;87;20919;-76
2021/06/22 08:48:13;;;;;;;8.73;7.83;;;;;;;33.08;44.51;100278.75;1650870;85;20936;-76
2021/06/22 08:50:43;;;;;;;8.53;7.90;;;;;;;32.96;44.38;100276.16;1651284;85;20949;-76
2021/06/22 08:53:14;;;;;;;9.08;8.28;;;;;;;32.84;44.39;100285.09;1647274;85;20967;-76
2021/06/22 08:55:42;;;;;;;9.40;8.68;;;;;;;32.87;44.42;100288.25;1645802;85;20906;-76
2021/06/22 08:58:12;;;;;;;9.98;8.33;;;;;;;32.74;44.37;100289.84;1650998;85;21424;-76
2021/06/22 09:00:42;;;;;;;11.38;9.20;;;;;;;33.13;44.44;100292.45;1649071;85;20902;-76
2021/06/22 09:03:17;;;;;;;12.55;8.63;;;;;;;33.39;44.16;100296.11;1629144;86;20899;-76
2021/06/22 09:05:47;;;;;;;11.97;8.25;;;;;;;33.05;44.36;100289.83;1638910;86;20946;-76
2021/06/22 09:08:31;;;;;;;11.63;8.55;;;;;;;33.38;44.36;100288.58;1626460;86;20921;-76
2021/06/22 09:11:11;;;;;;;11.33;9.00;;;;;;;33.54;44.28;100288.95;1630003;86;20906;-76
2021/06/22 09:13:41;;;;;;;10.85;7.33;;;;;;;34.28;44.19;100283.66;1633803;86;20953;-76
2021/06/22 09:16:12;;;;;;;12.55;8.40;;;;;;;34.91;43.74;100280.81;1660061;84;20962;-76
2021/06/22 09:18:42;;;;;;;9.00;8.13;;;;;;;35.20;43.89;100273.16;1614900;86;20871;-77
2021/06/22 09:21:18;;;;;;;8.95;7.92;;;;;;;35.39;43.70;100273.84;1631407;86;20901;-76
2021/06/22 09:23:47;;;;;;;8.77;8.03;;;;;;;35.31;43.49;100275.36;1631300;86;20905;-76
2021/06/22 09:26:17;;;;;;;8.90;7.85;;;;;;;35.09;43.74;100274.50;1633298;86;20946;-76
2021/06/22 09:28:44;;;;;;;8.80;7.70;;;;;;;35.11;43.78;100275.97;1633271;86;21022;-77
2021/06/22 09:31:14;;;;;;;9.93;8.15;;;;;;;34.99;43.56;100284.73;1661915;84;20914;-76
2021/06/22 09:33:44;;;;;;;9.08;7.78;;;;;;;34.57;43.49;100278.27;1652563;85;20963;-76
2021/06/22 09:36:20;;;;;;;10.55;8.50;;;;;;;34.29;43.35;100282.64;1655797;85;20937;-76
2021/06/22 09:38:57;;;;;;;12.20;8.68;;;;;;;34.03;43.09;100286.62;1635694;86;21360;-76
2021/06/22 09:41:28;;;;;;;9.90;8.05;;;;;;;33.78;43.01;100287.38;1660858;84;20884;-76
2021/06/22 09:44:08;;;;;;;8.68;7.92;;;;;;;33.53;42.83;100295.32;1654345;85;20941;-76
2021/06/22 09:46:47;;;;;;;10.68;8.30;;;;;;;33.20;42.84;100298.26;1651532;85;20905;-77
2021/06/22 09:49:24;;;;;;;10.53;9.53;;;;;;;32.89;42.65;100304.98;1659119;85;20961;-76
2021/06/22 09:52:00;;;;;;;12.30;9.68;;;;;;;32.55;42.78;100301.81;1629913;86;20945;-76
2021/06/22 09:54:29;;;;;;;11.38;10.13;;;;;;;32.42;42.80;100290.31;1659362;85;21284;-76
2021/06/22 09:57:05;;;;;;;11.12;9.98;;;;;;;32.21;42.81;100292.73;1660505;85;20978;-76
2021/06/22 09:59:49;;;;;;;11.15;10.10;;;;;;;31.92;42.80;100291.46;1654857;84;21478;-74
2021/06/22 10:02:16;;;;;;;10.88;9.70;;;;;;;31.74;42.91;100282.80;1636233;85;20927;-74
2021/06/22 10:04:45;;;;;;;9.93;8.93;;;;;;;31.65;43.09;100282.97;1661912;85;20912;-74
2021/06/22 10:07:15;;;;;;;13.85;9.90;;;;;;;31.55;43.06;100281.31;1660037;85;20927;-75
2021/06/22 10:09:42;;;;;;;15.03;9.38;;;;;;;31.41;43.05;100268.61;1658557;85;20928;-75
2021/06/22 10:12:14;;;;;;;10.88;9.85;;;;;;;31.33;43.27;100277.97;1659880;85;21511;-75
2021/06/22 10:14:49;;;;;;;11.45;10.43;;;;;;;31.26;43.32;100280.47;1654848;85;21482;-75
2021/06/22 10:17:23;;;;;;;10.08;9.08;;;;;;;31.23;43.33;100286.14;1642803;86;20919;-75
2021/06/22 10:19:53;;;;;;;10.23;9.28;;;;;;;31.22;43.55;100287.64;1643868;86;21470;-75
2021/06/22 10:22:23;;;;;;;10.82;9.65;;;;;;;31.13;43.50;100291.34;1643987;86;20924;-74
2021/06/22 10:24:51;;;;;;;10.78;9.70;;;;;;;31.06;43.70;100291.63;1645143;86;20931;-74
2021/06/22 10:27:20;;;;;;;14.28;10.10;;;;;;;31.08;43.80;100297.14;1641879;86;20951;-75
2021/06/22 10:29:51;;;;;;;10.82;9.18;;;;;;;31.08;43.95;100294.97;1645053;86;20914;-75
2021/06/22 10:32:18;;;;;;;11.80;10.58;;;;;;;31.13;44.03;100301.52;1621666;86;20959;-75
2021/06/22 10:34:46;;;;;;;10.38;8.48;;;;;;;31.19;44.01;100300.03;1647100;86;20879;-75
2021/06/22 10:37:29;;;;;;;10.00;9.00;;;;;;;31.12;44.14;100311.00;1636424;86;21444;-75
2021/06/22 10:40:12;;;;;;;9.63;8.75;;;;;;;31.14;44.19;100311.70;1639761;86;21347;-75
2021/06/22 10:42:44;;;;;;;11.80;9.55;;;;;;;31.14;44.34;100299.19;1645021;86;20871;-77
2021/06/22 10:45:12;;;;;;;11.08;9.58;;;;;;;31.21;44.35;100297.49;1646958;86;20895;-75
2021/06/22 10:47:44;;;;;;;13.10;9.55;;;;;;;31.21;44.48;100284.13;1646072;86;20977;-75
2021/06/22 10:50:27;;;;;;;9.40;8.60;;;;;;;31.22;44.47;100286.31;1640767;86;21475;-75
2021/06/22 10:52:59;;;;;;;11.00;8.85;;;;;;;31.24;44.58;100279.80;1641861;86;20946;-75
2021/06/22 10:55:41;;;;;;;9.23;8.33;;;;;;;31.29;44.68;100259.27;1656969;85;36133;-75
2021/06/22 10:58:07;;;;;;;;;;;;;;;31.17;44.51;100254.78;1661144;85;20919;-75
2021/06/22 11:00:48;;;;;;;8.85;8.05;;;;;;;30.99;44.84;100243.87;1658790;85;20132;-75
2021/06/22 11:03:34;;;;;;;9.68;8.60;;;;;;;30.96;44.77;100238.36;1657733;85;20938;-75
2021/06/22 11:06:12;;;;;;;9.78;8.73;;;;;;;30.94;44.91;100237.69;1652503;85;21080;-75
2021/06/22 11:08:41;;;;;;;9.30;8.35;;;;;;;30.99;44.93;100248.72;1647680;85;20878;-75
2021/06/22 11:11:13;;;;;;;8.70;7.92;;;;;;;30.99;44.95;100242.04;1652162;85;20916;-75
2021/06/22 11:13:47;;;;;;;11.48;8.25;;;;;;;31.04;45.03;100242.38;1654580;85;20952;-75
2021/06/22 11:16:22;;;;;;;11.57;8.75;;;;;;;30.97;44.99;100249.88;1652156;85;20970;-75
2021/06/22 11:19:02;;;;;;;9.78;7.55;;;;;;;30.75;44.90;100268.19;1649838;85;20995;-75
2021/06/22 11:21:33;;;;;;;11.28;8.03;;;;;;;30.48;45.04;100279.11;1647242;84;20890;-74